sensor_id;sensor_type;location;lat;lon;timestamp;P1;durP1;ratioP1;P2;durP2;ratioP2
75379;SDS011;65641;44.714;37.756;2023-05-10T08:00:37;1.77;;;0.83;;
75379;SDS011;65641;44.714;37.756;2023-05-10T08:01:42;1.13;;;0.70;;
75379;SDS011;65641;44.714;37.756;2023-05-10T08:02:45;1.73;;;0.95;;
75379;SDS011;65641;44.714;37.756;2023-05-10T08:03:49;1.42;;;0.77;;
75379;SDS011;65641;44.714;37.756;2023-05-10T08:04:53;1.20;;;0.90;;
75379;SDS011;65641;44.714;37.756;2023-05-10T08:05:56;1.88;;;1.00;;
75379;SDS011;65641;44.714;37.756;2023-05-10T08:06:59;1.05;;;0.80;;
75379;SDS011;65641;44.714;37.756;2023-05-10T08:08:01;1.73;;;0.80;;
75379;SDS011;65641;44.714;37.756;2023-05-10T08:09:04;1.10;;;0.82;;
75379;SDS011;65641;44.714;37.756;2023-05-10T08:10:08;1.10;;;0.68;;
75379;SDS011;65641;44.714;37.756;2023-05-10T08:11:13;1.80;;;0.73;;
75379;SDS011;65641;44.714;37.756;2023-05-10T08:12:16;1.75;;;0.45;;
75379;SDS011;65641;44.714;37.756;2023-05-10T08:13:19;1.27;;;0.80;;
75379;SDS011;65641;44.714;37.756;2023-05-10T08:14:22;1.20;;;0.80;;
75379;SDS011;65641;44.714;37.756;2023-05-10T08:15:24;1.05;;;0.50;;
75379;SDS011;65641;44.714;37.756;2023-05-10T08:16:27;1.00;;;0.57;;
75379;SDS011;65641;44.714;37.756;2023-05-10T08:17:31;1.52;;;0.70;;
75379;SDS011;65641;44.714;37.756;2023-05-10T08:18:34;1.10;;;0.82;;
75379;SDS011;65641;44.714;37.756;2023-05-10T08:19:37;1.20;;;0.80;;
75379;SDS011;65641;44.714;37.756;2023-05-10T08:20:40;2.00;;;0.57;;
75379;SDS011;65641;44.714;37.756;2023-05-10T08:21:43;1.45;;;0.88;;
75379;SDS011;65641;44.714;37.756;2023-05-10T08:22:46;1.13;;;0.63;;
75379;SDS011;65641;44.714;37.756;2023-05-10T08:23:52;1.10;;;0.70;;
75379;SDS011;65641;44.714;37.756;2023-05-10T08:24:55;1.60;;;0.90;;
75379;SDS011;65641;44.714;37.756;2023-05-10T08:25:58;0.77;;;0.60;;
75379;SDS011;65641;44.714;37.756;2023-05-10T08:27:01;1.40;;;0.88;;
75379;SDS011;65641;44.714;37.756;2023-05-10T08:28:04;1.45;;;0.70;;
75379;SDS011;65641;44.714;37.756;2023-05-10T08:29:07;1.98;;;0.63;;
75379;SDS011;65641;44.714;37.756;2023-05-10T08:30:10;0.90;;;0.73;;
75379;SDS011;65641;44.714;37.756;2023-05-10T08:31:15;1.67;;;1.02;;
75379;SDS011;65641;44.714;37.756;2023-05-10T08:32:18;1.15;;;0.88;;
75379;SDS011;65641;44.714;37.756;2023-05-10T08:33:21;1.17;;;1.08;;
75379;SDS011;65641;44.714;37.756;2023-05-10T08:34:26;1.10;;;0.82;;
75379;SDS011;65641;44.714;37.756;2023-05-10T08:35:29;2.47;;;0.93;;
75379;SDS011;65641;44.714;37.756;2023-05-10T08:36:33;1.17;;;0.95;;
75379;SDS011;65641;44.714;37.756;2023-05-10T08:37:36;1.00;;;0.88;;
75379;SDS011;65641;44.714;37.756;2023-05-10T08:38:39;1.35;;;0.90;;
75379;SDS011;65641;44.714;37.756;2023-05-10T08:39:42;1.50;;;1.17;;
75379;SDS011;65641;44.714;37.756;2023-05-10T08:40:45;1.10;;;0.93;;
75379;SDS011;65641;44.714;37.756;2023-05-10T08:41:51;0.77;;;0.77;;
75379;SDS011;65641;44.714;37.756;2023-05-10T08:42:59;1.13;;;0.98;;
75379;SDS011;65641;44.714;37.756;2023-05-10T08:44:11;1.40;;;0.93;;
75379;SDS011;65641;44.714;37.756;2023-05-10T08:45:15;1.25;;;0.80;;
75379;SDS011;65641;44.714;37.756;2023-05-10T08:46:19;1.00;;;0.85;;
75379;SDS011;65641;44.714;37.756;2023-05-10T08:47:23;0.98;;;0.70;;
75379;SDS011;65641;44.714;37.756;2023-05-10T08:48:28;1.30;;;0.98;;
75379;SDS011;65641;44.714;37.756;2023-05-10T08:49:32;1.52;;;0.93;;
75379;SDS011;65641;44.714;37.756;2023-05-10T08:50:36;1.40;;;0.82;;
75379;SDS011;65641;44.714;37.756;2023-05-10T08:51:41;1.13;;;1.02;;
75379;SDS011;65641;44.714;37.756;2023-05-10T08:52:47;1.40;;;0.65;;
75379;SDS011;65641;44.714;37.756;2023-05-10T08:53:52;1.73;;;0.85;;
75379;SDS011;65641;44.714;37.756;2023-05-10T08:54:56;1.75;;;0.73;;
75379;SDS011;65641;44.714;37.756;2023-05-10T08:56:02;1.00;;;0.70;;
75379;SDS011;65641;44.714;37.756;2023-05-10T08:57:06;2.85;;;0.82;;
75379;SDS011;65641;44.714;37.756;2023-05-10T08:58:09;1.13;;;0.90;;
75379;SDS011;65641;44.714;37.756;2023-05-10T08:59:12;1.05;;;0.43;;
75379;SDS011;65641;44.714;37.756;2023-05-10T09:00:16;1.10;;;0.70;;
75379;SDS011;65641;44.714;37.756;2023-05-10T09:01:21;1.05;;;0.55;;
75379;SDS011;65641;44.714;37.756;2023-05-10T09:02:24;1.65;;;0.55;;
75379;SDS011;65641;44.714;37.756;2023-05-10T09:03:28;1.00;;;0.82;;
75379;SDS011;65641;44.714;37.756;2023-05-10T09:04:31;1.00;;;0.70;;
75379;SDS011;65641;44.714;37.756;2023-05-10T09:05:35;1.63;;;0.70;;
75379;SDS011;65641;44.714;37.756;2023-05-10T09:06:39;1.10;;;0.90;;
75379;SDS011;65641;44.714;37.756;2023-05-10T09:07:42;1.50;;;0.88;;
75379;SDS011;65641;44.714;37.756;2023-05-10T09:08:45;1.10;;;0.65;;
75379;SDS011;65641;44.714;37.756;2023-05-10T09:09:48;1.15;;;0.70;;
75379;SDS011;65641;44.714;37.756;2023-05-10T09:10:53;0.90;;;0.50;;
75379;SDS011;65641;44.714;37.756;2023-05-10T09:11:57;1.42;;;0.65;;
75379;SDS011;65641;44.714;37.756;2023-05-10T09:13:00;2.05;;;0.85;;
75379;SDS011;65641;44.714;37.756;2023-05-10T09:14:04;1.20;;;1.00;;
75379;SDS011;65641;44.714;37.756;2023-05-10T09:15:07;1.27;;;0.77;;
75379;SDS011;65641;44.714;37.756;2023-05-10T09:16:12;1.38;;;0.68;;
75379;SDS011;65641;44.714;37.756;2023-05-10T09:17:22;0.90;;;0.65;;
75379;SDS011;65641;44.714;37.756;2023-05-10T09:18:27;1.10;;;0.85;;
75379;SDS011;65641;44.714;37.756;2023-05-10T09:19:31;1.10;;;0.85;;
75379;SDS011;65641;44.714;37.756;2023-05-10T09:20:33;1.17;;;1.08;;
75379;SDS011;65641;44.714;37.756;2023-05-10T09:21:36;1.75;;;1.00;;
75379;SDS011;65641;44.714;37.756;2023-05-10T09:22:42;1.08;;;0.82;;
75379;SDS011;65641;44.714;37.756;2023-05-10T09:23:46;1.77;;;1.20;;
75379;SDS011;65641;44.714;37.756;2023-05-10T09:25:03;1.45;;;0.95;;
75379;SDS011;65641;44.714;37.756;2023-05-10T09:26:21;1.52;;;1.17;;
75379;SDS011;65641;44.714;37.756;2023-05-10T09:27:28;1.38;;;1.00;;
75379;SDS011;65641;44.714;37.756;2023-05-10T09:28:31;1.27;;;1.10;;
75379;SDS011;65641;44.714;37.756;2023-05-10T09:29:52;1.52;;;1.42;;
75379;SDS011;65641;44.714;37.756;2023-05-10T09:30:57;1.23;;;0.90;;
75379;SDS011;65641;44.714;37.756;2023-05-10T09:32:00;1.00;;;0.85;;
75379;SDS011;65641;44.714;37.756;2023-05-10T09:33:02;1.02;;;0.65;;
75379;SDS011;65641;44.714;37.756;2023-05-10T09:34:06;1.33;;;0.70;;
75379;SDS011;65641;44.714;37.756;2023-05-10T09:35:16;1.60;;;1.00;;
75379;SDS011;65641;44.714;37.756;2023-05-10T09:36:20;1.60;;;1.10;;
75379;SDS011;65641;44.714;37.756;2023-05-10T09:37:29;1.50;;;1.35;;
75379;SDS011;65641;44.714;37.756;2023-05-10T09:38:44;1.27;;;0.70;;
75379;SDS011;65641;44.714;37.756;2023-05-10T09:39:47;1.35;;;0.80;;
75379;SDS011;65641;44.714;37.756;2023-05-10T09:40:57;1.08;;;0.80;;
75379;SDS011;65641;44.714;37.756;2023-05-10T09:42:01;1.02;;;0.63;;
75379;SDS011;65641;44.714;37.756;2023-05-10T09:43:08;1.45;;;0.80;;
75379;SDS011;65641;44.714;37.756;2023-05-10T09:44:16;1.77;;;1.00;;
75379;SDS011;65641;44.714;37.756;2023-05-10T09:45:20;1.15;;;0.77;;
75379;SDS011;65641;44.714;37.756;2023-05-10T09:46:23;1.10;;;0.90;;
75379;SDS011;65641;44.714;37.756;2023-05-10T09:47:27;2.25;;;0.95;;
75379;SDS011;65641;44.714;37.756;2023-05-10T09:48:30;1.42;;;0.88;;
75379;SDS011;65641;44.714;37.756;2023-05-10T09:49:33;1.55;;;0.80;;
75379;SDS011;65641;44.714;37.756;2023-05-10T09:50:37;1.40;;;0.80;;
75379;SDS011;65641;44.714;37.756;2023-05-10T09:51:40;1.75;;;1.25;;
75379;SDS011;65641;44.714;37.756;2023-05-10T09:52:46;1.13;;;0.75;;
75379;SDS011;65641;44.714;37.756;2023-05-10T09:54:09;1.30;;;1.10;;
75379;SDS011;65641;44.714;37.756;2023-05-10T09:55:12;1.85;;;0.75;;
75379;SDS011;65641;44.714;37.756;2023-05-10T09:56:35;1.63;;;0.90;;
75379;SDS011;65641;44.714;37.756;2023-05-10T09:57:41;1.23;;;1.02;;
75379;SDS011;65641;44.714;37.756;2023-05-10T09:58:44;1.23;;;0.80;;
75379;SDS011;65641;44.714;37.756;2023-05-10T09:59:47;1.30;;;0.90;;
75379;SDS011;65641;44.714;37.756;2023-05-10T10:00:50;1.88;;;1.02;;
75379;SDS011;65641;44.714;37.756;2023-05-10T10:01:57;1.23;;;1.05;;
75379;SDS011;65641;44.714;37.756;2023-05-10T10:03:02;1.25;;;0.68;;
75379;SDS011;65641;44.714;37.756;2023-05-10T10:04:06;1.65;;;0.90;;
75379;SDS011;65641;44.714;37.756;2023-05-10T10:05:11;1.77;;;0.70;;
75379;SDS011;65641;44.714;37.756;2023-05-10T10:06:18;1.52;;;1.13;;
75379;SDS011;65641;44.714;37.756;2023-05-10T10:07:31;1.95;;;1.15;;
75379;SDS011;65641;44.714;37.756;2023-05-10T10:08:35;1.42;;;1.23;;
75379;SDS011;65641;44.714;37.756;2023-05-10T10:09:37;1.65;;;1.55;;
75379;SDS011;65641;44.714;37.756;2023-05-10T10:10:41;2.17;;;1.10;;
75379;SDS011;65641;44.714;37.756;2023-05-10T10:11:47;1.08;;;0.98;;
75379;SDS011;65641;44.714;37.756;2023-05-10T10:12:50;1.33;;;1.23;;
75379;SDS011;65641;44.714;37.756;2023-05-10T10:13:54;1.30;;;1.08;;
75379;SDS011;65641;44.714;37.756;2023-05-10T10:14:57;1.92;;;0.90;;
75379;SDS011;65641;44.714;37.756;2023-05-10T10:16:07;1.20;;;0.77;;
75379;SDS011;65641;44.714;37.756;2023-05-10T10:17:11;1.55;;;1.20;;
75379;SDS011;65641;44.714;37.756;2023-05-10T10:18:15;1.88;;;1.63;;
75379;SDS011;65641;44.714;37.756;2023-05-10T10:19:18;1.52;;;0.98;;
75379;SDS011;65641;44.714;37.756;2023-05-10T10:20:23;1.40;;;1.08;;
75379;SDS011;65641;44.714;37.756;2023-05-10T10:21:27;2.38;;;1.17;;
75379;SDS011;65641;44.714;37.756;2023-05-10T10:22:30;1.35;;;0.88;;
75379;SDS011;65641;44.714;37.756;2023-05-10T10:23:34;1.83;;;0.98;;
75379;SDS011;65641;44.714;37.756;2023-05-10T10:24:38;1.63;;;0.68;;
75379;SDS011;65641;44.714;37.756;2023-05-10T10:25:44;1.15;;;0.73;;
75379;SDS011;65641;44.714;37.756;2023-05-10T10:26:51;1.50;;;0.98;;
75379;SDS011;65641;44.714;37.756;2023-05-10T10:31:00;1.42;;;0.98;;
75379;SDS011;65641;44.714;37.756;2023-05-10T10:32:30;1.70;;;1.10;;
75379;SDS011;65641;44.714;37.756;2023-05-10T10:35:04;2.38;;;1.20;;
75379;SDS011;65641;44.714;37.756;2023-05-10T10:36:08;2.30;;;1.42;;
75379;SDS011;65641;44.714;37.756;2023-05-10T10:37:11;2.72;;;1.20;;
75379;SDS011;65641;44.714;37.756;2023-05-10T10:38:14;2.20;;;1.02;;
75379;SDS011;65641;44.714;37.756;2023-05-10T10:39:18;1.42;;;1.10;;
75379;SDS011;65641;44.714;37.756;2023-05-10T10:40:26;1.35;;;1.10;;
75379;SDS011;65641;44.714;37.756;2023-05-10T10:41:35;1.23;;;0.75;;
75379;SDS011;65641;44.714;37.756;2023-05-10T10:42:46;2.42;;;1.13;;
75379;SDS011;65641;44.714;37.756;2023-05-10T10:43:49;1.52;;;1.00;;
75379;SDS011;65641;44.714;37.756;2023-05-10T10:45:38;2.72;;;1.23;;
75379;SDS011;65641;44.714;37.756;2023-05-10T10:48:24;1.38;;;1.08;;
75379;SDS011;65641;44.714;37.756;2023-05-10T10:49:27;1.70;;;1.20;;
75379;SDS011;65641;44.714;37.756;2023-05-10T10:50:42;1.60;;;1.23;;
75379;SDS011;65641;44.714;37.756;2023-05-10T10:53:21;1.60;;;1.20;;
75379;SDS011;65641;44.714;37.756;2023-05-10T10:54:27;1.77;;;1.67;;
75379;SDS011;65641;44.714;37.756;2023-05-10T10:55:30;1.83;;;1.52;;
75379;SDS011;65641;44.714;37.756;2023-05-10T10:56:36;1.52;;;1.02;;
75379;SDS011;65641;44.714;37.756;2023-05-10T10:58:48;1.55;;;1.33;;
75379;SDS011;65641;44.714;37.756;2023-05-10T11:01:46;1.33;;;0.77;;
75379;SDS011;65641;44.714;37.756;2023-05-10T11:02:56;1.42;;;0.80;;
75379;SDS011;65641;44.714;37.756;2023-05-10T11:06:31;2.00;;;1.42;;
75379;SDS011;65641;44.714;37.756;2023-05-10T11:07:35;1.42;;;1.33;;
75379;SDS011;65641;44.714;37.756;2023-05-10T11:08:53;1.52;;;0.95;;
75379;SDS011;65641;44.714;37.756;2023-05-10T11:10:02;1.40;;;0.90;;
75379;SDS011;65641;44.714;37.756;2023-05-10T11:11:07;1.27;;;0.85;;
75379;SDS011;65641;44.714;37.756;2023-05-10T11:12:10;1.35;;;0.70;;
75379;SDS011;65641;44.714;37.756;2023-05-10T11:13:13;2.13;;;1.00;;
75379;SDS011;65641;44.714;37.756;2023-05-10T11:14:17;1.10;;;0.80;;
75379;SDS011;65641;44.714;37.756;2023-05-10T11:15:28;2.15;;;1.10;;
75379;SDS011;65641;44.714;37.756;2023-05-10T11:16:41;1.30;;;1.00;;
75379;SDS011;65641;44.714;37.756;2023-05-10T11:17:47;1.00;;;0.75;;
75379;SDS011;65641;44.714;37.756;2023-05-10T11:19:04;1.42;;;1.10;;
75379;SDS011;65641;44.714;37.756;2023-05-10T11:20:10;2.15;;;1.10;;
75379;SDS011;65641;44.714;37.756;2023-05-10T11:22:20;2.15;;;1.52;;
75379;SDS011;65641;44.714;37.756;2023-05-10T11:23:23;1.50;;;1.38;;
75379;SDS011;65641;44.714;37.756;2023-05-10T11:24:27;1.67;;;0.93;;
75379;SDS011;65641;44.714;37.756;2023-05-10T11:25:30;1.92;;;1.20;;
75379;SDS011;65641;44.714;37.756;2023-05-10T11:26:34;1.50;;;1.35;;
75379;SDS011;65641;44.714;37.756;2023-05-10T11:27:37;2.22;;;1.27;;
75379;SDS011;65641;44.714;37.756;2023-05-10T11:28:44;1.48;;;1.13;;
75379;SDS011;65641;44.714;37.756;2023-05-10T11:29:51;1.95;;;1.30;;
75379;SDS011;65641;44.714;37.756;2023-05-10T11:30:54;1.33;;;1.20;;
75379;SDS011;65641;44.714;37.756;2023-05-10T11:32:00;1.92;;;1.33;;
75379;SDS011;65641;44.714;37.756;2023-05-10T11:33:04;1.70;;;1.48;;
75379;SDS011;65641;44.714;37.756;2023-05-10T11:34:08;3.05;;;1.45;;
75379;SDS011;65641;44.714;37.756;2023-05-10T11:35:12;2.05;;;1.85;;
75379;SDS011;65641;44.714;37.756;2023-05-10T11:36:16;2.15;;;1.35;;
75379;SDS011;65641;44.714;37.756;2023-05-10T11:37:19;1.52;;;1.42;;
75379;SDS011;65641;44.714;37.756;2023-05-10T11:38:22;1.73;;;1.48;;
75379;SDS011;65641;44.714;37.756;2023-05-10T11:39:28;1.58;;;1.42;;
75379;SDS011;65641;44.714;37.756;2023-05-10T11:40:34;2.10;;;1.73;;
75379;SDS011;65641;44.714;37.756;2023-05-10T11:41:39;2.13;;;1.70;;
75379;SDS011;65641;44.714;37.756;2023-05-10T11:42:44;1.63;;;1.33;;
75379;SDS011;65641;44.714;37.756;2023-05-10T11:43:48;1.70;;;1.55;;
75379;SDS011;65641;44.714;37.756;2023-05-10T11:44:53;2.05;;;1.55;;
75379;SDS011;65641;44.714;37.756;2023-05-10T11:45:56;3.95;;;1.83;;
75379;SDS011;65641;44.714;37.756;2023-05-10T11:46:59;1.83;;;1.65;;
75379;SDS011;65641;44.714;37.756;2023-05-10T11:48:03;1.58;;;1.48;;
75379;SDS011;65641;44.714;37.756;2023-05-10T11:49:06;2.45;;;1.50;;
75379;SDS011;65641;44.714;37.756;2023-05-10T11:50:10;2.25;;;1.42;;
75379;SDS011;65641;44.714;37.756;2023-05-10T11:51:19;2.15;;;1.48;;
75379;SDS011;65641;44.714;37.756;2023-05-10T11:52:23;2.35;;;1.65;;
75379;SDS011;65641;44.714;37.756;2023-05-10T11:53:26;1.92;;;1.30;;
75379;SDS011;65641;44.714;37.756;2023-05-10T11:54:29;2.00;;;1.65;;
75379;SDS011;65641;44.714;37.756;2023-05-10T11:55:33;2.08;;;1.83;;
75379;SDS011;65641;44.714;37.756;2023-05-10T11:56:37;1.70;;;1.60;;
75379;SDS011;65641;44.714;37.756;2023-05-10T11:57:40;2.38;;;1.95;;
75379;SDS011;65641;44.714;37.756;2023-05-10T11:58:44;1.52;;;1.10;;
75379;SDS011;65641;44.714;37.756;2023-05-10T11:59:52;1.33;;;1.20;;
75379;SDS011;65641;44.714;37.756;2023-05-10T12:00:57;1.52;;;1.40;;
75379;SDS011;65641;44.714;37.756;2023-05-10T12:02:01;3.28;;;1.60;;
75379;SDS011;65641;44.714;37.756;2023-05-10T12:03:05;1.60;;;1.23;;
75379;SDS011;65641;44.714;37.756;2023-05-10T12:04:08;1.40;;;1.30;;
75379;SDS011;65641;44.714;37.756;2023-05-10T12:05:12;1.73;;;1.15;;
75379;SDS011;65641;44.714;37.756;2023-05-10T12:06:16;1.25;;;1.13;;
75379;SDS011;65641;44.714;37.756;2023-05-10T12:07:22;1.52;;;1.35;;
75379;SDS011;65641;44.714;37.756;2023-05-10T12:08:26;1.30;;;1.02;;
75379;SDS011;65641;44.714;37.756;2023-05-10T12:09:30;1.23;;;0.82;;
75379;SDS011;65641;44.714;37.756;2023-05-10T12:10:44;1.38;;;1.25;;
75379;SDS011;65641;44.714;37.756;2023-05-10T12:11:47;2.28;;;1.35;;
75379;SDS011;65641;44.714;37.756;2023-05-10T12:12:51;1.20;;;1.05;;
75379;SDS011;65641;44.714;37.756;2023-05-10T12:13:55;1.80;;;1.10;;
75379;SDS011;65641;44.714;37.756;2023-05-10T12:14:58;1.52;;;1.10;;
75379;SDS011;65641;44.714;37.756;2023-05-10T12:16:11;1.40;;;0.85;;
75379;SDS011;65641;44.714;37.756;2023-05-10T12:17:36;1.60;;;1.50;;
75379;SDS011;65641;44.714;37.756;2023-05-10T12:18:42;1.60;;;1.40;;
75379;SDS011;65641;44.714;37.756;2023-05-10T12:19:45;1.70;;;1.60;;
75379;SDS011;65641;44.714;37.756;2023-05-10T12:20:49;1.60;;;1.45;;
75379;SDS011;65641;44.714;37.756;2023-05-10T12:21:55;2.08;;;1.88;;
75379;SDS011;65641;44.714;37.756;2023-05-10T12:22:58;1.45;;;1.25;;
75379;SDS011;65641;44.714;37.756;2023-05-10T12:24:04;1.50;;;1.40;;
75379;SDS011;65641;44.714;37.756;2023-05-10T12:25:10;1.80;;;1.42;;
75379;SDS011;65641;44.714;37.756;2023-05-10T12:26:13;1.73;;;1.63;;
75379;SDS011;65641;44.714;37.756;2023-05-10T12:27:17;2.25;;;2.13;;
75379;SDS011;65641;44.714;37.756;2023-05-10T12:28:20;1.80;;;1.70;;
75379;SDS011;65641;44.714;37.756;2023-05-10T12:29:22;1.63;;;1.50;;
75379;SDS011;65641;44.714;37.756;2023-05-10T12:30:26;1.92;;;1.73;;
75379;SDS011;65641;44.714;37.756;2023-05-10T12:31:30;1.45;;;1.35;;
75379;SDS011;65641;44.714;37.756;2023-05-10T12:32:39;1.85;;;1.30;;
75379;SDS011;65641;44.714;37.756;2023-05-10T12:33:45;1.42;;;1.10;;
75379;SDS011;65641;44.714;37.756;2023-05-10T12:34:49;1.58;;;1.48;;
75379;SDS011;65641;44.714;37.756;2023-05-10T12:35:55;1.25;;;1.15;;
75379;SDS011;65641;44.714;37.756;2023-05-10T12:37:01;1.48;;;1.17;;
75379;SDS011;65641;44.714;37.756;2023-05-10T12:38:22;1.52;;;1.35;;
75379;SDS011;65641;44.714;37.756;2023-05-10T12:39:50;1.83;;;1.15;;
75379;SDS011;65641;44.714;37.756;2023-05-10T12:40:53;2.15;;;1.42;;
75379;SDS011;65641;44.714;37.756;2023-05-10T12:41:56;1.40;;;1.17;;
75379;SDS011;65641;44.714;37.756;2023-05-10T12:42:59;1.40;;;1.20;;
75379;SDS011;65641;44.714;37.756;2023-05-10T12:44:02;1.45;;;1.30;;
75379;SDS011;65641;44.714;37.756;2023-05-10T12:45:05;1.30;;;1.17;;
75379;SDS011;65641;44.714;37.756;2023-05-10T12:46:13;1.65;;;1.02;;
75379;SDS011;65641;44.714;37.756;2023-05-10T12:47:18;1.55;;;1.30;;
75379;SDS011;65641;44.714;37.756;2023-05-10T12:48:22;1.17;;;0.95;;
75379;SDS011;65641;44.714;37.756;2023-05-10T12:49:24;1.88;;;1.23;;
75379;SDS011;65641;44.714;37.756;2023-05-10T12:50:27;1.50;;;1.33;;
75379;SDS011;65641;44.714;37.756;2023-05-10T12:51:30;1.40;;;1.17;;
75379;SDS011;65641;44.714;37.756;2023-05-10T12:52:35;1.60;;;1.45;;
75379;SDS011;65641;44.714;37.756;2023-05-10T12:53:39;2.03;;;0.95;;
75379;SDS011;65641;44.714;37.756;2023-05-10T12:54:45;1.48;;;1.20;;
75379;SDS011;65641;44.714;37.756;2023-05-10T12:55:48;1.27;;;1.10;;
75379;SDS011;65641;44.714;37.756;2023-05-10T12:56:51;1.52;;;1.02;;
75379;SDS011;65641;44.714;37.756;2023-05-10T12:57:54;1.60;;;1.50;;
75379;SDS011;65641;44.714;37.756;2023-05-10T12:58:57;1.30;;;1.20;;
75379;SDS011;65641;44.714;37.756;2023-05-10T13:00:00;1.40;;;1.30;;
75379;SDS011;65641;44.714;37.756;2023-05-10T13:01:07;1.50;;;1.15;;
75379;SDS011;65641;44.714;37.756;2023-05-10T13:02:10;1.90;;;1.45;;
75379;SDS011;65641;44.714;37.756;2023-05-10T13:03:13;1.42;;;1.33;;
75379;SDS011;65641;44.714;37.756;2023-05-10T13:04:17;1.88;;;1.77;;
75379;SDS011;65641;44.714;37.756;2023-05-10T13:05:20;1.55;;;1.40;;
75379;SDS011;65641;44.714;37.756;2023-05-10T13:06:23;2.20;;;1.77;;
75379;SDS011;65641;44.714;37.756;2023-05-10T13:07:26;1.70;;;1.50;;
75379;SDS011;65641;44.714;37.756;2023-05-10T13:08:29;1.73;;;1.63;;
75379;SDS011;65641;44.714;37.756;2023-05-10T13:09:35;1.63;;;1.52;;
75379;SDS011;65641;44.714;37.756;2023-05-10T13:10:38;2.08;;;1.83;;
75379;SDS011;65641;44.714;37.756;2023-05-10T13:11:42;2.17;;;1.98;;
75379;SDS011;65641;44.714;37.756;2023-05-10T13:12:45;1.98;;;1.70;;
75379;SDS011;65641;44.714;37.756;2023-05-10T13:13:48;2.70;;;2.50;;
75379;SDS011;65641;44.714;37.756;2023-05-10T13:14:51;2.13;;;1.40;;
75379;SDS011;65641;44.714;37.756;2023-05-10T13:15:54;1.38;;;1.27;;
75379;SDS011;65641;44.714;37.756;2023-05-10T13:16:57;1.60;;;1.50;;
75379;SDS011;65641;44.714;37.756;2023-05-10T13:18:03;1.45;;;1.02;;
75379;SDS011;65641;44.714;37.756;2023-05-10T13:19:06;1.70;;;1.50;;
75379;SDS011;65641;44.714;37.756;2023-05-10T13:20:11;1.38;;;1.10;;
75379;SDS011;65641;44.714;37.756;2023-05-10T13:21:14;2.17;;;1.33;;
75379;SDS011;65641;44.714;37.756;2023-05-10T13:22:17;1.55;;;1.45;;
75379;SDS011;65641;44.714;37.756;2023-05-10T13:23:37;1.83;;;1.65;;
75379;SDS011;65641;44.714;37.756;2023-05-10T13:24:40;1.80;;;1.42;;
75379;SDS011;65641;44.714;37.756;2023-05-10T13:25:43;1.98;;;1.38;;
75379;SDS011;65641;44.714;37.756;2023-05-10T13:26:46;2.30;;;1.23;;
75379;SDS011;65641;44.714;37.756;2023-05-10T13:27:49;1.50;;;1.40;;
75379;SDS011;65641;44.714;37.756;2023-05-10T13:28:55;1.92;;;1.52;;
75379;SDS011;65641;44.714;37.756;2023-05-10T13:29:57;2.25;;;1.67;;
75379;SDS011;65641;44.714;37.756;2023-05-10T13:31:01;2.30;;;1.80;;
75379;SDS011;65641;44.714;37.756;2023-05-10T13:32:04;1.75;;;1.60;;
75379;SDS011;65641;44.714;37.756;2023-05-10T13:33:07;1.75;;;1.65;;
75379;SDS011;65641;44.714;37.756;2023-05-10T13:34:10;1.80;;;1.70;;
75379;SDS011;65641;44.714;37.756;2023-05-10T13:35:13;1.83;;;1.63;;
75379;SDS011;65641;44.714;37.756;2023-05-10T13:36:16;2.00;;;1.48;;
75379;SDS011;65641;44.714;37.756;2023-05-10T13:37:19;2.15;;;1.52;;
75379;SDS011;65641;44.714;37.756;2023-05-10T13:38:22;1.55;;;1.35;;
75379;SDS011;65641;44.714;37.756;2023-05-10T13:39:25;2.13;;;1.55;;
75379;SDS011;65641;44.714;37.756;2023-05-10T13:40:28;1.85;;;1.10;;
75379;SDS011;65641;44.714;37.756;2023-05-10T13:41:31;1.50;;;1.23;;
75379;SDS011;65641;44.714;37.756;2023-05-10T13:42:34;2.55;;;1.40;;
75379;SDS011;65641;44.714;37.756;2023-05-10T13:43:37;1.52;;;1.42;;
75379;SDS011;65641;44.714;37.756;2023-05-10T13:44:40;1.60;;;1.30;;
75379;SDS011;65641;44.714;37.756;2023-05-10T13:45:43;1.40;;;1.20;;
75379;SDS011;65641;44.714;37.756;2023-05-10T13:46:45;2.35;;;1.38;;
75379;SDS011;65641;44.714;37.756;2023-05-10T13:47:48;1.83;;;1.73;;
75379;SDS011;65641;44.714;37.756;2023-05-10T13:48:51;1.70;;;1.60;;
75379;SDS011;65641;44.714;37.756;2023-05-10T13:49:55;1.77;;;1.48;;
75379;SDS011;65641;44.714;37.756;2023-05-10T13:50:58;1.73;;;1.63;;
75379;SDS011;65641;44.714;37.756;2023-05-10T13:52:01;1.83;;;1.48;;
75379;SDS011;65641;44.714;37.756;2023-05-10T13:53:08;1.95;;;1.58;;
75379;SDS011;65641;44.714;37.756;2023-05-10T13:54:11;2.17;;;1.50;;
75379;SDS011;65641;44.714;37.756;2023-05-10T13:55:14;1.65;;;1.48;;
75379;SDS011;65641;44.714;37.756;2023-05-10T13:56:18;2.58;;;1.77;;
75379;SDS011;65641;44.714;37.756;2023-05-10T13:57:21;1.83;;;1.13;;
75379;SDS011;65641;44.714;37.756;2023-05-10T13:58:25;1.35;;;1.15;;
75379;SDS011;65641;44.714;37.756;2023-05-10T13:59:28;2.03;;;1.42;;
75379;SDS011;65641;44.714;37.756;2023-05-10T14:00:33;2.30;;;1.02;;
75379;SDS011;65641;44.714;37.756;2023-05-10T14:01:36;2.03;;;1.30;;
75379;SDS011;65641;44.714;37.756;2023-05-10T14:02:40;1.60;;;1.10;;
75379;SDS011;65641;44.714;37.756;2023-05-10T14:03:43;1.85;;;1.60;;
75379;SDS011;65641;44.714;37.756;2023-05-10T14:04:46;1.67;;;1.27;;
75379;SDS011;65641;44.714;37.756;2023-05-10T14:05:49;1.58;;;1.20;;
75379;SDS011;65641;44.714;37.756;2023-05-10T14:06:52;2.25;;;1.45;;
75379;SDS011;65641;44.714;37.756;2023-05-10T14:07:55;2.08;;;1.38;;
75379;SDS011;65641;44.714;37.756;2023-05-10T14:08:57;1.70;;;1.23;;
75379;SDS011;65641;44.714;37.756;2023-05-10T14:10:00;2.45;;;1.35;;
75379;SDS011;65641;44.714;37.756;2023-05-10T14:11:04;1.60;;;1.38;;
75379;SDS011;65641;44.714;37.756;2023-05-10T14:12:07;2.30;;;1.23;;
75379;SDS011;65641;44.714;37.756;2023-05-10T14:13:10;1.95;;;1.42;;
75379;SDS011;65641;44.714;37.756;2023-05-10T14:14:14;1.95;;;1.60;;
75379;SDS011;65641;44.714;37.756;2023-05-10T14:15:17;1.40;;;1.00;;
75379;SDS011;65641;44.714;37.756;2023-05-10T14:16:20;1.52;;;1.10;;
75379;SDS011;65641;44.714;37.756;2023-05-10T14:17:23;2.90;;;1.35;;
75379;SDS011;65641;44.714;37.756;2023-05-10T14:18:26;2.17;;;1.40;;
75379;SDS011;65641;44.714;37.756;2023-05-10T14:19:30;2.20;;;1.10;;
75379;SDS011;65641;44.714;37.756;2023-05-10T14:20:34;1.83;;;1.33;;
75379;SDS011;65641;44.714;37.756;2023-05-10T14:21:37;2.15;;;1.60;;
75379;SDS011;65641;44.714;37.756;2023-05-10T14:22:40;2.08;;;1.30;;
75379;SDS011;65641;44.714;37.756;2023-05-10T14:23:43;1.40;;;1.15;;
75379;SDS011;65641;44.714;37.756;2023-05-10T14:24:46;2.05;;;1.60;;
75379;SDS011;65641;44.714;37.756;2023-05-10T14:25:52;1.50;;;1.25;;
75379;SDS011;65641;44.714;37.756;2023-05-10T14:26:55;2.05;;;1.85;;
75379;SDS011;65641;44.714;37.756;2023-05-10T14:27:58;1.90;;;1.65;;
75379;SDS011;65641;44.714;37.756;2023-05-10T14:29:04;2.53;;;1.73;;
75379;SDS011;65641;44.714;37.756;2023-05-10T14:30:11;2.08;;;1.63;;
75379;SDS011;65641;44.714;37.756;2023-05-10T14:31:15;1.85;;;1.35;;
75379;SDS011;65641;44.714;37.756;2023-05-10T14:32:19;2.00;;;1.80;;
75379;SDS011;65641;44.714;37.756;2023-05-10T14:33:23;1.88;;;1.58;;
75379;SDS011;65641;44.714;37.756;2023-05-10T14:34:26;1.75;;;1.50;;
75379;SDS011;65641;44.714;37.756;2023-05-10T14:35:28;1.67;;;1.15;;
75379;SDS011;65641;44.714;37.756;2023-05-10T14:36:33;1.83;;;1.67;;
75379;SDS011;65641;44.714;37.756;2023-05-10T14:37:36;1.95;;;1.35;;
75379;SDS011;65641;44.714;37.756;2023-05-10T14:38:39;1.88;;;1.52;;
75379;SDS011;65641;44.714;37.756;2023-05-10T14:39:42;1.60;;;1.20;;